Time;durP1;ratioP1;P1;durP2;ratioP2;P2;SDS_P1;SDS_P2;PMS_P1;PMS_P2;Temp;Humidity;BMP_temperature;BMP_pressure;BME280_temperature;BME280_humidity;BME280_pressure;Samples;Min_cycle;Max_cycle;Signal;HPM_P1;HPM_P2
2023/09/25 00:00:08;;;;;;;2.08;1.98;;;;;;;;;;10362093;28;20259;-80
2023/09/25 00:05:09;;;;;;;2.40;2.25;;;;;;;;;;10362616;28;20663;-83
2023/09/25 00:10:11;;;;;;;2.97;2.30;;;;;;;;;;10362076;28;20180;-79
2023/09/25 00:15:12;;;;;;;1.83;1.83;;;;;;;;;;10341580;28;20215;-80
2023/09/25 00:20:14;;;;;;;1.75;1.75;;;;;;;;;;10361489;28;20252;-81
2023/09/25 00:25:15;;;;;;;1.85;1.75;;;;;;;;;;10363323;28;20213;-79
2023/09/25 00:30:18;;;;;;;1.88;1.88;;;;;;;;;;10343455;28;20207;-79
2023/09/25 00:35:20;;;;;;;2.20;1.95;;;;;;;;;;10360315;28;20196;-80
2023/09/25 00:40:24;;;;;;;1.50;1.40;;;;;;;;;;10349579;28;20654;-79
2023/09/25 00:45:25;;;;;;;1.85;1.52;;;;;;;;;;10374006;28;20236;-81
2023/09/25 00:50:30;;;;;;;2.22;2.13;;;;;;;;;;10344014;28;20224;-81
2023/09/25 00:55:31;;;;;;;2.13;2.03;;;;;;;;;;10344611;28;20238;-79
2023/09/25 01:00:35;;;;;;;1.95;1.80;;;;;;;;;;10368825;28;20216;-80
2023/09/25 01:05:37;;;;;;;1.98;1.77;;;;;;;;;;10371119;28;20224;-79
2023/09/25 01:10:40;;;;;;;1.92;1.83;;;;;;;;;;10368156;28;20275;-79
2023/09/25 01:15:43;;;;;;;2.03;2.03;;;;;;;;;;10387796;28;20219;-79
2023/09/25 01:20:44;;;;;;;1.30;1.30;;;;;;;;;;10364190;28;20270;-80
2023/09/25 01:25:45;;;;;;;2.10;2.00;;;;;;;;;;10365531;28;20231;-80
2023/09/25 01:30:46;;;;;;;2.35;1.88;;;;;;;;;;10361499;28;20858;-80
2023/09/25 01:35:47;;;;;;;1.67;1.67;;;;;;;;;;10360579;28;20216;-81
2023/09/25 01:40:48;;;;;;;1.60;1.52;;;;;;;;;;10360656;28;20302;-81
2023/09/25 01:45:49;;;;;;;1.92;1.83;;;;;;;;;;10356830;28;20239;-80
2023/09/25 01:50:50;;;;;;;1.73;1.67;;;;;;;;;;10360776;28;20243;-79
2023/09/25 01:55:51;;;;;;;1.80;1.80;;;;;;;;;;10359713;28;20231;-80
2023/09/25 02:00:52;;;;;;;1.70;1.70;;;;;;;;;;10343485;28;20224;-79
2023/09/25 02:05:56;;;;;;;1.90;1.80;;;;;;;;;;10339725;28;20665;-80
2023/09/25 02:11:00;;;;;;;1.52;1.52;;;;;;;;;;10361239;28;20319;-80
2023/09/25 02:16:01;;;;;;;1.85;1.75;;;;;;;;;;10352628;28;20481;-80
2023/09/25 02:21:02;;;;;;;1.58;1.58;;;;;;;;;;10350738;28;20215;-79
2023/09/25 02:26:03;;;;;;;2.03;1.98;;;;;;;;;;10352837;28;20232;-79
2023/09/25 02:31:04;;;;;;;2.20;2.10;;;;;;;;;;10348293;28;20212;-80
2023/09/25 02:36:11;;;;;;;2.13;1.95;;;;;;;;;;10348529;28;20231;-80
2023/09/25 02:41:12;;;;;;;2.05;1.90;;;;;;;;;;10352911;28;20753;-79
2023/09/25 02:46:13;;;;;;;1.25;1.17;;;;;;;;;;10360723;28;20235;-79
2023/09/25 02:51:14;;;;;;;1.88;1.77;;;;;;;;;;10358487;28;20827;-80
2023/09/25 02:56:15;;;;;;;2.22;1.88;;;;;;;;;;10359818;28;20216;-80
2023/09/25 03:01:17;;;;;;;2.40;2.17;;;;;;;;;;10357354;28;20223;-80
2023/09/25 03:06:18;;;;;;;2.28;2.08;;;;;;;;;;10341874;28;20212;-80
2023/09/25 03:11:19;;;;;;;1.92;1.92;;;;;;;;;;10364298;28;20243;-81
2023/09/25 03:16:20;;;;;;;2.03;1.92;;;;;;;;;;10332242;28;20215;-80
2023/09/25 03:21:21;;;;;;;2.00;1.90;;;;;;;;;;10359038;28;20690;-81
2023/09/25 03:26:22;;;;;;;2.17;2.08;;;;;;;;;;10361096;28;20239;-80
2023/09/25 03:31:23;;;;;;;1.52;1.52;;;;;;;;;;10356739;28;20299;-80
2023/09/25 03:36:24;;;;;;;1.67;1.58;;;;;;;;;;10355361;28;20267;-79
2023/09/25 03:41:26;;;;;;;2.90;2.58;;;;;;;;;;10357808;28;20259;-80
2023/09/25 03:46:27;;;;;;;1.90;1.83;;;;;;;;;;10375978;28;20694;-80
2023/09/25 03:51:28;;;;;;;2.13;1.92;;;;;;;;;;10362985;28;20220;-81
2023/09/25 03:56:29;;;;;;;2.17;2.00;;;;;;;;;;10359826;28;20219;-81
2023/09/25 04:01:30;;;;;;;2.55;2.15;;;;;;;;;;10354833;28;20746;-80
2023/09/25 04:06:31;;;;;;;1.88;1.77;;;;;;;;;;10343694;28;20307;-80
2023/09/25 04:11:33;;;;;;;1.60;1.55;;;;;;;;;;10352945;28;20208;-80
2023/09/25 04:16:34;;;;;;;2.03;1.90;;;;;;;;;;10360091;28;20217;-81
2023/09/25 04:21:35;;;;;;;2.03;1.98;;;;;;;;;;10335191;28;20216;-80
2023/09/25 04:26:40;;;;;;;2.22;2.13;;;;;;;;;;10360340;28;20228;-80
2023/09/25 04:31:41;;;;;;;2.20;2.10;;;;;;;;;;10361398;28;20685;-81
2023/09/25 04:36:44;;;;;;;2.67;2.58;;;;;;;;;;10353316;28;20212;-81
2023/09/25 04:41:45;;;;;;;2.60;2.40;;;;;;;;;;10362586;28;20212;-80
2023/09/25 04:46:47;;;;;;;2.50;2.40;;;;;;;;;;10359050;28;20228;-79
2023/09/25 04:51:48;;;;;;;2.35;2.17;;;;;;;;;;10357272;28;20215;-80
2023/09/25 04:56:50;;;;;;;2.60;2.33;;;;;;;;;;10358367;28;20219;-80
2023/09/25 05:01:51;;;;;;;2.28;2.17;;;;;;;;;;10357941;28;20271;-80
2023/09/25 05:06:52;;;;;;;2.15;2.05;;;;;;;;;;10356956;28;20713;-79
2023/09/25 05:11:53;;;;;;;1.70;1.70;;;;;;;;;;10348251;28;20247;-80
2023/09/25 05:16:54;;;;;;;1.60;1.50;;;;;;;;;;10352701;28;20274;-80
2023/09/25 05:21:56;;;;;;;2.50;2.38;;;;;;;;;;10350267;28;20702;-80
2023/09/25 05:26:57;;;;;;;2.30;2.20;;;;;;;;;;10348326;28;20613;-80
2023/09/25 05:31:58;;;;;;;3.22;2.97;;;;;;;;;;10330141;28;20223;-81
2023/09/25 05:36:59;;;;;;;3.20;2.97;;;;;;;;;;10346294;28;20215;-80
2023/09/25 05:42:00;;;;;;;4.13;3.17;;;;;;;;;;10346064;28;20212;-79
2023/09/25 05:47:01;;;;;;;3.38;3.17;;;;;;;;;;10362415;28;20422;-80
2023/09/25 05:52:03;;;;;;;3.97;3.75;;;;;;;;;;10337319;28;20221;-80
2023/09/25 05:57:08;;;;;;;5.95;4.07;;;;;;;;;;10341457;28;20724;-79
2023/09/25 06:02:09;;;;;;;4.13;3.85;;;;;;;;;;10359571;28;20282;-79
2023/09/25 06:07:10;;;;;;;5.57;5.07;;;;;;;;;;10344503;28;20227;-79
2023/09/25 06:12:13;;;;;;;4.97;4.53;;;;;;;;;;10341863;28;20725;-79
2023/09/25 06:17:15;;;;;;;5.05;4.65;;;;;;;;;;10315923;28;20204;-80
2023/09/25 06:22:16;;;;;;;4.60;4.30;;;;;;;;;;10342531;28;20228;-82
2023/09/25 06:27:17;;;;;;;4.90;4.50;;;;;;;;;;10357153;28;20791;-81
2023/09/25 06:32:20;;;;;;;5.25;4.85;;;;;;;;;;10346765;28;20572;-80
2023/09/25 06:37:21;;;;;;;4.57;4.13;;;;;;;;;;10343468;28;20218;-80
2023/09/25 06:42:22;;;;;;;9.05;5.28;;;;;;;;;;10341401;28;20226;-81
2023/09/25 06:47:23;;;;;;;6.93;4.38;;;;;;;;;;10332341;28;20220;-79
2023/09/25 06:52:24;;;;;;;4.45;4.25;;;;;;;;;;10330604;28;20219;-79
2023/09/25 06:57:25;;;;;;;4.88;4.47;;;;;;;;;;10350145;28;20621;-81
2023/09/25 07:02:26;;;;;;;4.90;4.28;;;;;;;;;;10350330;28;20224;-80
2023/09/25 07:07:27;;;;;;;4.75;4.43;;;;;;;;;;10337711;28;20222;-80
2023/09/25 07:12:28;;;;;;;4.68;4.40;;;;;;;;;;10342466;28;20227;-78
2023/09/25 07:17:30;;;;;;;4.72;4.32;;;;;;;;;;10341149;28;20304;-78
2023/09/25 07:22:31;;;;;;;4.70;4.38;;;;;;;;;;10340254;28;20215;-78
2023/09/25 07:27:35;;;;;;;4.97;4.47;;;;;;;;;;10325027;28;20228;-79
2023/09/25 07:32:37;;;;;;;3.63;3.40;;;;;;;;;;10342362;28;20212;-78
2023/09/25 07:37:41;;;;;;;6.03;3.55;;;;;;;;;;10323130;28;20224;-78
2023/09/25 07:42:42;;;;;;;4.90;3.85;;;;;;;;;;10349219;28;20307;-78
2023/09/25 07:47:43;;;;;;;4.13;3.42;;;;;;;;;;10327489;28;20286;-80
2023/09/25 07:52:44;;;;;;;3.55;3.35;;;;;;;;;;10320650;28;20224;-80
2023/09/25 07:57:45;;;;;;;3.03;2.92;;;;;;;;;;10347254;28;20808;-81
2023/09/25 08:02:47;;;;;;;3.67;3.25;;;;;;;;;;10345617;28;20212;-79
2023/09/25 08:07:49;;;;;;;5.90;3.05;;;;;;;;;;10339431;28;20235;-78
2023/09/25 08:12:50;;;;;;;3.40;3.10;;;;;;;;;;10347610;28;20249;-78
2023/09/25 08:17:51;;;;;;;3.05;2.85;;;;;;;;;;10341849;28;20715;-79
2023/09/25 08:22:53;;;;;;;3.25;3.15;;;;;;;;;;10336331;28;20227;-80
2023/09/25 08:27:54;;;;;;;2.47;2.35;;;;;;;;;;10309453;28;20609;-77
2023/09/25 08:32:56;;;;;;;2.78;2.67;;;;;;;;;;10340900;28;20242;-79
2023/09/25 08:37:57;;;;;;;2.63;2.53;;;;;;;;;;10337008;28;20294;-79
2023/09/25 08:42:58;;;;;;;3.03;2.40;;;;;;;;;;10331653;28;20236;-79
2023/09/25 08:47:59;;;;;;;2.75;2.17;;;;;;;;;;10335681;28;20222;-79
2023/09/25 08:53:00;;;;;;;2.60;2.42;;;;;;;;;;10332529;28;20269;-79
2023/09/25 08:58:02;;;;;;;1.85;1.85;;;;;;;;;;10337154;28;20787;-80
2023/09/25 09:03:04;;;;;;;2.17;2.08;;;;;;;;;;10337230;28;20234;-80
2023/09/25 09:08:06;;;;;;;1.48;1.48;;;;;;;;;;10339030;28;20727;-79
2023/09/25 09:13:10;;;;;;;2.75;1.98;;;;;;;;;;10344412;28;20302;-79
2023/09/25 09:18:19;;;;;;;1.48;1.48;;;;;;;;;;10349319;28;20247;-80
2023/09/25 09:23:20;;;;;;;1.20;1.20;;;;;;;;;;10343422;28;20227;-80
2023/09/25 09:28:22;;;;;;;1.40;1.40;;;;;;;;;;10344102;28;20246;-79
2023/09/25 09:33:29;;;;;;;2.03;1.92;;;;;;;;;;10341905;28;20250;-78
2023/09/25 09:38:31;;;;;;;1.42;1.38;;;;;;;;;;10340679;28;20266;-79
2023/09/25 09:43:32;;;;;;;1.80;1.50;;;;;;;;;;10338642;28;20223;-79
2023/09/25 09:48:34;;;;;;;1.83;1.83;;;;;;;;;;10333849;28;20270;-79
2023/09/25 09:53:38;;;;;;;1.98;1.88;;;;;;;;;;10336361;28;20592;-80
2023/09/25 09:58:39;;;;;;;2.10;2.00;;;;;;;;;;10340491;28;20313;-80
2023/09/25 10:03:40;;;;;;;1.67;1.67;;;;;;;;;;10325207;28;20219;-79
2023/09/25 10:08:59;;;;;;;2.03;1.98;;;;;;;;;;10342997;28;20643;-79
2023/09/25 10:14:03;;;;;;;1.23;1.23;;;;;;;;;;10342167;28;20308;-80
2023/09/25 10:19:14;;;;;;;1.63;1.52;;;;;;;;;;10319343;28;20231;-78
2023/09/25 10:24:24;;;;;;;2.00;1.70;;;;;;;;;;10328046;28;20710;-79
2023/09/25 10:29:25;;;;;;;2.08;1.20;;;;;;;;;;10317347;28;20272;-80
2023/09/25 10:34:26;;;;;;;1.00;1.00;;;;;;;;;;10353945;28;20590;-78
2023/09/25 10:39:28;;;;;;;2.33;1.40;;;;;;;;;;10319494;28;20247;-79
2023/09/25 10:44:29;;;;;;;1.50;1.50;;;;;;;;;;10334591;28;20240;-80
2023/09/25 10:49:30;;;;;;;1.30;1.30;;;;;;;;;;10338319;28;21027;-80
2023/09/25 10:54:31;;;;;;;1.00;1.00;;;;;;;;;;10346714;28;20310;-79
2023/09/25 10:59:33;;;;;;;1.15;1.15;;;;;;;;;;10344327;28;20208;-80
2023/09/25 11:04:34;;;;;;;1.00;1.00;;;;;;;;;;10335908;28;20302;-82
2023/09/25 11:09:35;;;;;;;2.42;1.33;;;;;;;;;;10335733;28;21203;-81
2023/09/25 11:14:37;;;;;;;2.03;1.27;;;;;;;;;;10345343;28;20220;-81
2023/09/25 11:19:38;;;;;;;0.90;0.70;;;;;;;;;;10345242;28;20216;-81
2023/09/25 11:24:40;;;;;;;0.60;0.60;;;;;;;;;;10354011;28;20274;-80
2023/09/25 11:29:41;;;;;;;1.40;0.75;;;;;;;;;;10342978;28;20254;-81
2023/09/25 11:34:43;;;;;;;0.55;0.55;;;;;;;;;;10351078;28;20220;-81
2023/09/25 11:39:45;;;;;;;0.70;0.70;;;;;;;;;;10359500;28;20250;-82
2023/09/25 11:44:46;;;;;;;1.02;0.75;;;;;;;;;;10354682;28;20858;-82
2023/09/25 11:49:47;;;;;;;0.70;0.70;;;;;;;;;;10354144;28;20310;-81
2023/09/25 11:54:48;;;;;;;0.60;0.60;;;;;;;;;;10350975;28;20247;-81
2023/09/25 11:59:49;;;;;;;1.40;0.63;;;;;;;;;;10335301;28;20311;-81
2023/09/25 12:04:53;;;;;;;0.55;0.55;;;;;;;;;;10341899;28;20235;-81
2023/09/25 12:09:55;;;;;;;0.40;0.40;;;;;;;;;;10348914;28;20939;-80
2023/09/25 12:14:58;;;;;;;0.60;0.60;;;;;;;;;;10350614;28;20313;-80
2023/09/25 12:20:06;;;;;;;0.50;0.50;;;;;;;;;;10331871;28;20620;-80
2023/09/25 12:25:11;;;;;;;0.60;0.60;;;;;;;;;;10330198;28;20236;-80
2023/09/25 12:30:13;;;;;;;3.78;0.50;;;;;;;;;;10350690;28;20199;-80
2023/09/25 12:35:18;;;;;;;1.00;0.60;;;;;;;;;;10346082;28;20220;-81
2023/09/25 12:40:19;;;;;;;0.57;0.50;;;;;;;;;;10320376;28;20197;-80
2023/09/25 12:45:21;;;;;;;0.60;0.60;;;;;;;;;;10338962;28;20655;-81
2023/09/25 12:50:22;;;;;;;1.23;0.70;;;;;;;;;;10352951;28;20216;-80
2023/09/25 12:55:23;;;;;;;0.60;0.60;;;;;;;;;;10341599;28;20296;-81
2023/09/25 13:00:25;;;;;;;1.98;0.50;;;;;;;;;;10349989;28;20342;-80
2023/09/25 13:05:26;;;;;;;0.70;0.70;;;;;;;;;;10347786;28;20258;-80
2023/09/25 13:10:27;;;;;;;0.57;0.57;;;;;;;;;;10345208;28;20577;-80
2023/09/25 13:15:29;;;;;;;0.47;0.47;;;;;;;;;;10342602;28;20227;-80
2023/09/25 13:20:30;;;;;;;1.35;0.43;;;;;;;;;;10338593;28;20219;-79
2023/09/25 13:25:31;;;;;;;0.52;0.52;;;;;;;;;;10340754;28;20236;-80
2023/09/25 13:30:32;;;;;;;0.52;0.52;;;;;;;;;;10327163;28;20241;-79
2023/09/25 13:35:33;;;;;;;0.82;0.50;;;;;;;;;;10344386;28;20625;-80
2023/09/25 13:40:34;;;;;;;0.60;0.60;;;;;;;;;;10330697;28;20254;-79
2023/09/25 13:45:35;;;;;;;1.98;0.60;;;;;;;;;;10343889;28;20753;-79
2023/09/25 13:50:36;;;;;;;0.60;0.60;;;;;;;;;;10345774;28;20223;-79
2023/09/25 13:55:37;;;;;;;0.70;0.70;;;;;;;;;;10334245;28;20261;-79
2023/09/25 14:00:39;;;;;;;1.35;0.65;;;;;;;;;;10346176;28;20207;-80
2023/09/25 14:05:41;;;;;;;0.70;0.70;;;;;;;;;;10347107;28;20224;-78
2023/09/25 14:10:42;;;;;;;0.70;0.70;;;;;;;;;;10352540;28;20243;-79
2023/09/25 14:15:43;;;;;;;0.65;0.65;;;;;;;;;;10338727;28;20212;-79
2023/09/25 14:20:46;;;;;;;1.17;0.60;;;;;;;;;;10338030;28;20693;-80
2023/09/25 14:25:47;;;;;;;0.70;0.70;;;;;;;;;;10341410;28;20269;-80
2023/09/25 14:30:49;;;;;;;0.55;0.50;;;;;;;;;;10355069;28;20606;-79
2023/09/25 14:35:50;;;;;;;0.70;0.70;;;;;;;;;;10351966;28;20657;-79
2023/09/25 14:40:52;;;;;;;0.88;0.88;;;;;;;;;;10353585;28;20254;-79
2023/09/25 14:45:53;;;;;;;0.75;0.75;;;;;;;;;;10353290;28;20223;-80
2023/09/25 14:50:54;;;;;;;0.75;0.73;;;;;;;;;;10348552;28;20252;-80
2023/09/25 14:55:55;;;;;;;0.60;0.60;;;;;;;;;;10351285;28;20217;-80
2023/09/25 15:00:59;;;;;;;1.85;0.70;;;;;;;;;;10329712;28;20872;-80
2023/09/25 15:06:00;;;;;;;1.55;0.60;;;;;;;;;;10347380;28;20314;-80
2023/09/25 15:11:01;;;;;;;0.85;0.85;;;;;;;;;;10355852;28;20747;-81
2023/09/25 15:16:02;;;;;;;1.73;1.00;;;;;;;;;;10351570;28;20216;-80
2023/09/25 15:21:04;;;;;;;0.68;0.68;;;;;;;;;;10346062;28;20685;-79
2023/09/25 15:26:05;;;;;;;0.80;0.80;;;;;;;;;;10352794;28;20232;-79
2023/09/25 15:31:07;;;;;;;1.23;0.68;;;;;;;;;;10350569;28;20240;-81
2023/09/25 15:36:08;;;;;;;0.80;0.80;;;;;;;;;;10353769;28;20217;-80
2023/09/25 15:41:11;;;;;;;1.55;0.60;;;;;;;;;;10332733;28;20273;-80
2023/09/25 15:46:13;;;;;;;0.70;0.70;;;;;;;;;;10345996;28;20240;-81
2023/09/25 15:51:14;;;;;;;0.60;0.60;;;;;;;;;;10348371;28;20224;-80
2023/09/25 15:56:15;;;;;;;1.38;1.15;;;;;;;;;;10347638;28;20220;-80
2023/09/25 16:01:16;;;;;;;0.80;0.80;;;;;;;;;;10345174;28;20949;-78
2023/09/25 16:06:17;;;;;;;0.60;0.60;;;;;;;;;;10337818;28;20290;-79
2023/09/25 16:11:18;;;;;;;0.77;0.77;;;;;;;;;;10346076;28;20311;-78
2023/09/25 16:16:19;;;;;;;0.95;0.88;;;;;;;;;;10339462;28;20215;-77
2023/09/25 16:21:21;;;;;;;2.45;0.80;;;;;;;;;;10342503;28;20774;-78
2023/09/25 16:26:22;;;;;;;2.17;1.35;;;;;;;;;;10337451;28;20888;-80
2023/09/25 16:31:23;;;;;;;0.70;0.70;;;;;;;;;;10357269;28;20219;-79
2023/09/25 16:36:24;;;;;;;0.88;0.75;;;;;;;;;;10334753;28;20204;-76
2023/09/25 16:41:27;;;;;;;3.60;0.60;;;;;;;;;;10343315;28;20602;-78
2023/09/25 16:46:28;;;;;;;0.80;0.80;;;;;;;;;;10338404;28;20220;-79
2023/09/25 16:51:29;;;;;;;0.75;0.70;;;;;;;;;;10336739;28;20223;-80
2023/09/25 16:56:30;;;;;;;2.15;0.60;;;;;;;;;;10345298;28;20216;-80
2023/09/25 17:01:31;;;;;;;0.85;0.60;;;;;;;;;;10342053;28;20215;-80
2023/09/25 17:06:32;;;;;;;0.85;0.85;;;;;;;;;;10331466;28;20228;-78
2023/09/25 17:11:35;;;;;;;0.90;0.90;;;;;;;;;;10351618;28;20216;-79
2023/09/25 17:16:36;;;;;;;1.13;0.75;;;;;;;;;;10354106;28;20215;-79
2023/09/25 17:21:37;;;;;;;2.67;1.30;;;;;;;;;;10365283;28;20241;-80
2023/09/25 17:26:38;;;;;;;8.48;3.90;;;;;;;;;;10345561;28;20625;-80
2023/09/25 17:31:39;;;;;;;28.48;11.38;;;;;;;;;;10340576;28;20219;-80
2023/09/25 17:36:41;;;;;;;25.10;8.95;;;;;;;;;;10357305;28;21488;-80
2023/09/25 17:41:42;;;;;;;27.15;10.38;;;;;;;;;;10343656;28;20307;-80
2023/09/25 17:46:43;;;;;;;25.20;8.38;;;;;;;;;;10346369;28;20287;-81
2023/09/25 17:51:44;;;;;;;12.55;7.05;;;;;;;;;;10341274;28;20247;-81
2023/09/25 17:56:46;;;;;;;13.70;6.15;;;;;;;;;;10348008;28;21288;-81
2023/09/25 18:01:47;;;;;;;9.60;4.65;;;;;;;;;;10323954;28;20246;-81
2023/09/25 18:06:48;;;;;;;6.97;4.40;;;;;;;;;;10318327;28;20310;-82
2023/09/25 18:11:49;;;;;;;6.80;3.42;;;;;;;;;;10348227;28;20215;-81
2023/09/25 18:16:50;;;;;;;4.95;3.42;;;;;;;;;;10351247;28;20208;-82
2023/09/25 18:21:51;;;;;;;5.10;3.42;;;;;;;;;;10330375;28;20216;-82
2023/09/25 18:26:53;;;;;;;4.97;3.13;;;;;;;;;;10344849;28;20297;-82
2023/09/25 18:31:54;;;;;;;6.60;2.53;;;;;;;;;;10325495;28;20212;-81
2023/09/25 18:36:55;;;;;;;2.70;2.50;;;;;;;;;;10339512;28;20294;-82
2023/09/25 18:41:56;;;;;;;3.33;2.47;;;;;;;;;;10318546;28;20230;-80
2023/09/25 18:46:57;;;;;;;2.20;2.10;;;;;;;;;;10330133;28;20342;-80
2023/09/25 18:51:58;;;;;;;2.33;2.17;;;;;;;;;;10330809;28;20215;-78
2023/09/25 18:56:59;;;;;;;2.13;2.03;;;;;;;;;;10333934;28;20238;-79
2023/09/25 19:02:01;;;;;;;1.98;1.80;;;;;;;;;;10332906;28;20230;-79
2023/09/25 19:07:02;;;;;;;2.22;1.77;;;;;;;;;;10338780;28;20220;-76
2023/09/25 19:12:04;;;;;;;2.22;2.13;;;;;;;;;;10338678;28;20430;-77
2023/09/25 19:17:05;;;;;;;3.67;2.30;;;;;;;;;;10323634;28;20608;-79
2023/09/25 19:22:08;;;;;;;3.42;2.30;;;;;;;;;;10317839;28;20725;-79
2023/09/25 19:27:09;;;;;;;3.05;2.85;;;;;;;;;;10333235;28;20228;-78
2023/09/25 19:32:10;;;;;;;2.40;2.30;;;;;;;;;;10332981;28;20220;-79
2023/09/25 19:37:11;;;;;;;2.78;2.58;;;;;;;;;;10337932;28;20219;-78
2023/09/25 19:42:12;;;;;;;2.80;2.53;;;;;;;;;;10339161;28;20255;-78
2023/09/25 19:47:13;;;;;;;4.97;2.22;;;;;;;;;;10339520;28;24704;-78
2023/09/25 19:52:14;;;;;;;2.13;2.03;;;;;;;;;;10340306;28;20219;-78
2023/09/25 19:57:21;;;;;;;2.90;2.70;;;;;;;;;;10355181;28;20219;-79
2023/09/25 20:02:22;;;;;;;2.72;2.53;;;;;;;;;;10348963;28;20227;-80
2023/09/25 20:07:23;;;;;;;4.18;2.60;;;;;;;;;;10352763;28;20220;-79
2023/09/25 20:12:24;;;;;;;2.10;2.05;;;;;;;;;;10348018;28;20840;-79
2023/09/25 20:17:25;;;;;;;2.78;2.58;;;;;;;;;;10351332;28;20212;-79
2023/09/25 20:22:26;;;;;;;2.80;2.67;;;;;;;;;;10368947;28;20294;-79
2023/09/25 20:27:27;;;;;;;4.97;2.45;;;;;;;;;;10338424;28;20342;-79
2023/09/25 20:32:28;;;;;;;2.80;2.67;;;;;;;;;;10347325;28;20212;-79
2023/09/25 20:37:29;;;;;;;3.55;3.35;;;;;;;;;;10348370;28;20220;-77
2023/09/25 20:42:30;;;;;;;4.03;2.88;;;;;;;;;;10352727;28;20231;-78
2023/09/25 20:47:31;;;;;;;2.58;2.47;;;;;;;;;;10349774;28;20400;-77
2023/09/25 20:52:32;;;;;;;2.92;2.80;;;;;;;;;;10327267;28;20228;-79
2023/09/25 20:57:33;;;;;;;4.32;2.38;;;;;;;;;;10350809;28;20616;-78
2023/09/25 21:02:36;;;;;;;2.55;2.38;;;;;;;;;;10348549;28;20228;-80
2023/09/25 21:07:37;;;;;;;2.35;2.25;;;;;;;;;;10341141;28;20224;-76
2023/09/25 21:12:38;;;;;;;3.10;2.80;;;;;;;;;;10349849;28;20307;-77
2023/09/25 21:17:39;;;;;;;3.35;2.42;;;;;;;;;;10335585;28;20742;-77
2023/09/25 21:22:40;;;;;;;3.75;2.33;;;;;;;;;;10344190;28;20755;-78
2023/09/25 21:27:41;;;;;;;2.22;2.20;;;;;;;;;;10349804;28;20224;-78
2023/09/25 21:32:42;;;;;;;3.58;2.20;;;;;;;;;;10347209;28;20220;-78
2023/09/25 21:37:43;;;;;;;2.63;2.38;;;;;;;;;;10345256;28;20278;-78
2023/09/25 21:42:44;;;;;;;1.98;1.95;;;;;;;;;;10346309;28;20212;-78
2023/09/25 21:47:46;;;;;;;2.85;2.22;;;;;;;;;;10352032;28;20216;-78
2023/09/25 21:52:47;;;;;;;2.40;2.30;;;;;;;;;;10336541;28;20983;-78
2023/09/25 21:57:48;;;;;;;2.70;2.47;;;;;;;;;;10353796;28;20306;-79
2023/09/25 22:02:49;;;;;;;2.85;2.13;;;;;;;;;;10343811;28;21205;-79
2023/09/25 22:07:50;;;;;;;1.90;1.75;;;;;;;;;;10342897;28;20338;-78
2023/09/25 22:12:51;;;;;;;4.43;2.58;;;;;;;;;;10334580;28;20223;-78
2023/09/25 22:17:52;;;;;;;2.58;2.47;;;;;;;;;;10348798;28;20286;-77
2023/09/25 22:22:56;;;;;;;2.15;2.13;;;;;;;;;;10345654;28;20321;-78
2023/09/25 22:27:58;;;;;;;2.95;2.28;;;;;;;;;;10348551;28;20256;-78
2023/09/25 22:32:59;;;;;;;4.25;2.25;;;;;;;;;;10346195;28;20220;-78
2023/09/25 22:38:06;;;;;;;2.13;2.03;;;;;;;;;;10339288;28;20789;-78
2023/09/25 22:43:08;;;;;;;2.25;2.25;;;;;;;;;;10344440;28;20216;-77
2023/09/25 22:48:09;;;;;;;2.78;2.22;;;;;;;;;;10334115;28;20836;-79
2023/09/25 22:53:10;;;;;;;3.38;3.13;;;;;;;;;;10345232;28;20219;-78
2023/09/25 22:58:12;;;;;;;2.50;2.35;;;;;;;;;;10346871;28;20219;-77
2023/09/25 23:03:13;;;;;;;3.10;2.70;;;;;;;;;;10355248;28;20231;-77
2023/09/25 23:08:14;;;;;;;2.58;2.40;;;;;;;;;;10347920;28;20227;-78
2023/09/25 23:13:15;;;;;;;4.97;2.75;;;;;;;;;;10353293;28;20910;-77
2023/09/25 23:18:16;;;;;;;2.75;2.65;;;;;;;;;;10350029;28;20589;-78
2023/09/25 23:23:17;;;;;;;3.53;2.65;;;;;;;;;;10351545;28;20265;-78
2023/09/25 23:28:18;;;;;;;4.82;2.72;;;;;;;;;;10353413;28;20289;-76
2023/09/25 23:33:20;;;;;;;2.92;2.70;;;;;;;;;;10350761;28;20305;-75
2023/09/25 23:38:21;;;;;;;4.07;2.60;;;;;;;;;;10360978;28;20630;-77
2023/09/25 23:43:22;;;;;;;2.83;2.65;;;;;;;;;;10354032;28;20216;-78
2023/09/25 23:48:23;;;;;;;4.43;3.20;;;;;;;;;;10347285;28;20323;-78
2023/09/25 23:53:24;;;;;;;2.92;2.83;;;;;;;;;;10352037;28;20219;-77
2023/09/25 23:58:25;;;;;;;3.80;2.13;;;;;;;;;;10353365;28;20216;-78
